עמוד ראשי
METAR-TAF:

METAR-TAF

שדות תעופה :

Napakiak, אלסקה, ארצות הברית

קו רוחב: 60-41-25N, קו אורך: 161-58-43W, גובה: 5מטר

תצפית מזג אוויר נוכחית

הדו"ח נערך לפני 35דקות, בשעה 01:56 UTC
רוח 12קשר מכיוון צפון-מערב עם משבים עד 18קשר
טמפרטורת 17 צלסיוס
לחות 63%
לחץ 1016 hPa
ראות: 14.5קילומטר
שמיים נקיים

METAR: PANA 230156Z AUTO 31012G18KT 9SM CLR 17/10 A2999 RMK AO2 SLP154 T01720100 TSNO

זמן: 18:31 (02:31 UTC)


TAF: חסר

תצפיות ותחזיות מזג אוויר לגבי יותר מ- 4,000 שדות תעופה ברחבי העולם. דוחות METAR ו- TAF.

התחנות הזמינות מסומנות בנקודות צהובות ואדומות על גבי המפה.

העבר את העכבר לנקודה הצבעונית על מנת לראות את שם התחנה.

לאחר מכן, לחץ כדי לראות את תוכן ואת תחזיות מזג האוויר.

כדי לשנות את המפה: לחץ על הכפתורים הירוקים עם הפלוס השחור כדי להתקרב; על הכפתור הירוק עם המקף כדי להתרחק; או בחיצים הירוקים למפות סמוכות.


METAR-TAF: